createdAt,value
2016-12-25T00:00:25.490Z,0
2016-12-25T00:01:35.509Z,0
2016-12-25T00:02:45.845Z,0
2016-12-25T00:03:56.166Z,0
2016-12-25T00:05:06.176Z,0
2016-12-25T00:06:16.495Z,0
2016-12-25T00:07:26.506Z,0
2016-12-25T00:08:36.527Z,0
2016-12-25T00:09:46.253Z,0
2016-12-25T00:10:56.261Z,0
2016-12-25T00:12:05.663Z,0
2016-12-25T00:13:15.673Z,0
2016-12-25T00:14:26.005Z,0
2016-12-25T00:15:36.042Z,0
2016-12-25T00:16:46.044Z,0
2016-12-25T00:17:56.405Z,0
2016-12-25T00:19:06.426Z,0
2016-12-25T00:20:16.763Z,0
2016-12-25T00:21:27.093Z,0
2016-12-25T00:22:36.492Z,0
2016-12-25T00:23:46.501Z,0
2016-12-25T00:24:56.843Z,0
2016-12-25T00:26:06.851Z,0
2016-12-25T00:27:16.861Z,0
2016-12-25T00:28:27.190Z,0
2016-12-25T00:29:37.511Z,0
2016-12-25T00:30:47.237Z,0
2016-12-25T00:31:56.947Z,0
2016-12-25T00:33:07.281Z,0
2016-12-25T00:34:17.296Z,0
2016-12-25T00:35:27.358Z,0
2016-12-25T00:36:37.698Z,0
2016-12-25T00:37:47.409Z,0
2016-12-25T00:38:57.760Z,0
2016-12-25T00:40:07.782Z,0
2016-12-25T00:41:17.800Z,0
2016-12-25T00:42:28.123Z,0
2016-12-25T00:43:38.451Z,0
2016-12-25T00:44:48.150Z,0
2016-12-25T00:45:58.159Z,0
2016-12-25T00:47:08.500Z,0
2016-12-25T00:48:18.847Z,0
2016-12-25T00:49:28.875Z,0
2016-12-25T00:50:39.215Z,0
2016-12-25T00:51:49.565Z,0
2016-12-25T00:52:59.904Z,0
2016-12-25T00:54:09.921Z,0
2016-12-25T00:55:19.622Z,0
2016-12-25T00:56:29.949Z,0
2016-12-25T00:57:40.265Z,0
2016-12-25T00:58:50.583Z,0
2016-12-25T01:00:00.599Z,0
2016-12-25T01:01:10.917Z,0
2016-12-25T01:02:20.940Z,0
2016-12-25T01:03:31.279Z,0
2016-12-25T01:04:41.635Z,0
2016-12-25T01:05:51.644Z,0
2016-12-25T01:07:01.972Z,0
2016-12-25T01:08:11.983Z,0
2016-12-25T01:09:21.376Z,0
2016-12-25T01:10:31.706Z,0
2016-12-25T01:11:42.062Z,0
2016-12-25T01:12:52.398Z,0
2016-12-25T01:14:02.416Z,0
2016-12-25T01:15:11.808Z,0
2016-12-25T01:16:21.814Z,0
2016-12-25T01:17:31.852Z,0
2016-12-25T01:18:41.603Z,0
2016-12-25T01:19:51.612Z,0
2016-12-25T01:21:01.326Z,0
2016-12-25T01:22:11.042Z,0
2016-12-25T01:23:20.775Z,0
2016-12-25T01:24:30.486Z,0
2016-12-25T01:25:40.513Z,0
2016-12-25T01:26:50.835Z,0
2016-12-25T01:28:01.161Z,0
2016-12-25T01:29:11.483Z,0
2016-12-25T01:30:21.229Z,0
2016-12-25T01:31:31.558Z,0
2016-12-25T01:32:41.273Z,0
2016-12-25T01:33:51.602Z,0
2016-12-25T01:35:01.931Z,0
2016-12-25T01:36:11.954Z,0
2016-12-25T01:37:22.287Z,0
2016-12-25T01:38:32.619Z,0
2016-12-25T01:39:42.014Z,0
2016-12-25T01:40:52.362Z,0
2016-12-25T01:42:02.692Z,0
2016-12-25T01:43:13.011Z,0
2016-12-25T01:44:22.715Z,0
2016-12-25T01:45:32.414Z,0
2016-12-25T01:46:42.429Z,0
2016-12-25T01:47:52.148Z,0
2016-12-25T01:49:01.855Z,0
2016-12-25T01:50:12.184Z,0
2016-12-25T01:51:22.502Z,0
2016-12-25T01:52:31.890Z,0
2016-12-25T01:53:41.910Z,0
2016-12-25T01:54:51.933Z,0
2016-12-25T01:56:01.958Z,0
2016-12-25T01:57:11.960Z,0
2016-12-25T01:58:21.978Z,0
2016-12-25T01:59:31.683Z,0
2016-12-25T02:00:42.022Z,0
2016-12-25T02:01:52.031Z,0
2016-12-25T02:03:01.750Z,0
2016-12-25T02:04:11.762Z,0
2016-12-25T02:05:22.083Z,0
2016-12-25T02:06:31.784Z,0
2016-12-25T02:07:41.491Z,0
2016-12-25T02:08:51.807Z,0
2016-12-25T02:10:01.824Z,0
2016-12-25T02:11:12.148Z,0
2016-12-25T02:12:22.158Z,0
2016-12-25T02:13:32.170Z,0
2016-12-25T02:14:41.566Z,0
2016-12-25T02:15:51.590Z,0
2016-12-25T02:17:01.615Z,0
2016-12-25T02:18:11.943Z,0
2016-12-25T02:19:21.646Z,0
2016-12-25T02:20:31.660Z,0
2016-12-25T02:21:41.987Z,0
2016-12-25T02:22:51.999Z,0
2016-12-25T02:24:02.332Z,0
2016-12-25T02:25:12.040Z,0
2016-12-25T02:26:22.055Z,0
2016-12-25T02:27:32.059Z,0
2016-12-25T02:28:42.092Z,0
2016-12-25T02:29:52.465Z,0
2016-12-25T02:31:02.477Z,0
2016-12-25T02:32:12.814Z,0
2016-12-25T02:33:23.139Z,0
2016-12-25T02:34:33.151Z,0
2016-12-25T02:35:43.163Z,0
2016-12-25T02:36:53.187Z,0
2016-12-25T02:38:03.530Z,0
2016-12-25T02:39:13.542Z,0
2016-12-25T02:40:23.869Z,0
2016-12-25T02:41:33.882Z,0
2016-12-25T02:42:44.215Z,0
2016-12-25T02:43:54.537Z,0
2016-12-25T02:45:04.879Z,0
2016-12-25T02:46:15.222Z,0
2016-12-25T02:47:25.235Z,0
2016-12-25T02:48:35.562Z,0
2016-12-25T02:49:46.120Z,0
2016-12-25T02:50:56.454Z,0
2016-12-25T02:52:06.782Z,0
2016-12-25T02:53:17.103Z,0
2016-12-25T02:54:26.801Z,0
2016-12-25T02:55:36.812Z,0
2016-12-25T02:56:46.833Z,0
2016-12-25T02:57:56.860Z,0
2016-12-25T02:59:07.192Z,0
2016-12-25T03:00:17.517Z,0
2016-12-25T03:32:44.162Z,0
2016-12-25T03:33:54.474Z,0
2016-12-25T03:35:04.472Z,0
2016-12-25T03:36:14.483Z,0
2016-12-25T03:37:24.515Z,0
2016-12-25T03:38:34.227Z,0
2016-12-25T03:39:44.237Z,0
2016-12-25T03:40:54.285Z,0
2016-12-25T03:42:04.299Z,0
2016-12-25T03:43:14.334Z,0
2016-12-25T03:44:24.651Z,0
2016-12-25T03:45:34.668Z,0
2016-12-25T03:46:44.379Z,0
2016-12-25T03:47:54.389Z,0
2016-12-25T03:49:04.717Z,0
2016-12-25T03:50:15.053Z,0
2016-12-25T03:51:25.411Z,0
2016-12-25T03:52:35.438Z,0
2016-12-25T03:53:45.170Z,0
2016-12-25T03:54:55.497Z,0
2016-12-25T03:56:05.813Z,0
2016-12-25T03:57:15.515Z,0
2016-12-25T03:58:25.231Z,0
2016-12-25T03:59:35.827Z,0
2016-12-25T04:00:46.173Z,0
2016-12-25T04:01:56.506Z,0
2016-12-25T04:03:06.833Z,0
2016-12-25T04:04:17.155Z,0
2016-12-25T04:05:27.168Z,0
2016-12-25T04:06:37.188Z,0
2016-12-25T04:07:47.520Z,0
2016-12-25T04:08:57.229Z,0
2016-12-25T04:10:07.540Z,0
2016-12-25T04:11:17.872Z,0
2016-12-25T04:12:27.270Z,0
2016-12-25T04:13:37.292Z,0
2016-12-25T04:14:47.331Z,0
2016-12-25T04:15:57.645Z,0
2016-12-25T04:17:07.667Z,0
2016-12-25T04:18:17.993Z,0
2016-12-25T04:19:28.020Z,0
2016-12-25T04:20:38.573Z,0
2016-12-25T04:21:48.278Z,0
2016-12-25T04:22:58.599Z,0
2016-12-25T04:24:08.622Z,0
2016-12-25T04:25:18.939Z,0
2016-12-25T04:26:28.649Z,0
2016-12-25T04:27:38.972Z,0
2016-12-25T04:28:48.689Z,0
2016-12-25T04:29:58.710Z,0
2016-12-25T04:31:08.732Z,0
2016-12-25T04:32:18.760Z,0
2016-12-25T04:33:29.081Z,0
2016-12-25T04:34:39.419Z,0
2016-12-25T04:35:49.434Z,0
2016-12-25T04:36:59.456Z,0
2016-12-25T04:38:09.808Z,0
2016-12-25T04:39:19.510Z,0
2016-12-25T04:40:29.562Z,0
2016-12-25T04:41:39.593Z,0
2016-12-25T04:42:49.288Z,0
2016-12-25T04:43:59.333Z,0
2016-12-25T04:45:09.348Z,0
2016-12-25T04:46:19.655Z,0
2016-12-25T04:47:29.658Z,0
2016-12-25T04:48:39.992Z,0
2016-12-25T04:49:50.006Z,0
2016-12-25T04:51:00.341Z,0
2016-12-25T04:52:10.675Z,0
2016-12-25T04:53:20.680Z,0
2016-12-25T04:54:30.378Z,0
2016-12-25T04:55:40.385Z,0
2016-12-25T04:56:50.091Z,0
2016-12-25T04:58:00.111Z,0
2016-12-25T04:59:10.121Z,0
2016-12-25T05:00:20.137Z,0
2016-12-25T05:01:30.448Z,0
2016-12-25T05:02:40.770Z,0
2016-12-25T05:03:50.794Z,0
2016-12-25T05:05:01.129Z,0
2016-12-25T05:06:11.444Z,0
2016-12-25T05:07:21.452Z,0
2016-12-25T05:08:31.782Z,0
2016-12-25T05:09:41.495Z,0
2016-12-25T05:10:51.505Z,0
2016-12-25T05:12:01.820Z,0
2016-12-25T05:13:11.535Z,0
2016-12-25T05:14:21.856Z,0
2016-12-25T05:15:32.164Z,0
2016-12-25T05:16:42.206Z,0
2016-12-25T05:17:51.601Z,0
2016-12-25T05:19:01.626Z,0
2016-12-25T05:20:11.955Z,0
2016-12-25T05:21:22.272Z,0
2016-12-25T05:22:32.303Z,0
2016-12-25T05:23:42.321Z,0
2016-12-25T05:24:52.642Z,0
2016-12-25T05:26:02.660Z,0
2016-12-25T05:27:12.666Z,0
2016-12-25T05:28:22.992Z,0
2016-12-25T05:29:33.025Z,0
2016-12-25T05:30:43.342Z,0
2016-12-25T05:31:53.357Z,0
2016-12-25T05:33:03.685Z,0
2016-12-25T05:34:13.081Z,0
2016-12-25T05:35:23.407Z,0
2016-12-25T05:36:33.106Z,0
2016-12-25T05:37:43.424Z,0
2016-12-25T05:38:53.723Z,0
2016-12-25T05:40:03.770Z,0
2016-12-25T05:41:14.108Z,0
2016-12-25T05:42:24.119Z,0
2016-12-25T05:43:34.144Z,0
2016-12-25T05:44:43.857Z,0
2016-12-25T05:45:53.865Z,0
2016-12-25T05:47:04.190Z,0
2016-12-25T05:48:14.526Z,0
2016-12-25T05:49:24.843Z,0
2016-12-25T05:50:35.164Z,0
2016-12-25T05:51:45.481Z,0
2016-12-25T05:52:55.199Z,0
2016-12-25T05:54:05.521Z,0
2016-12-25T05:55:15.227Z,0
2016-12-25T05:56:25.554Z,0
2016-12-25T05:57:36.143Z,0
2016-12-25T05:58:46.462Z,0
2016-12-25T05:59:56.782Z,0
2016-12-25T06:01:07.096Z,0
2016-12-25T06:02:17.418Z,0
2016-12-25T06:03:27.751Z,0
2016-12-25T06:04:37.796Z,0
2016-12-25T06:05:47.824Z,0
2016-12-25T06:06:58.203Z,0
2016-12-25T06:08:07.930Z,0
2016-12-25T06:09:17.958Z,0
2016-12-25T06:10:27.969Z,0
2016-12-25T06:11:37.980Z,0
2016-12-25T06:12:48.304Z,0
2016-12-25T06:13:58.311Z,0
2016-12-25T06:15:07.696Z,0
2016-12-25T06:16:17.713Z,0
2016-12-25T06:17:27.721Z,0
2016-12-25T06:18:37.736Z,4
2016-12-25T06:19:48.063Z,4
2016-12-25T06:20:58.085Z,4
2016-12-25T06:22:07.797Z,4
2016-12-25T06:23:18.113Z,0
2016-12-25T06:24:27.811Z,0
2016-12-25T06:25:38.132Z,4
2016-12-25T06:26:48.444Z,4
2016-12-25T06:27:58.770Z,4
2016-12-25T06:29:08.487Z,4
2016-12-25T06:30:18.863Z,4
2016-12-25T06:31:29.200Z,8
2016-12-25T06:32:39.556Z,4
2016-12-25T06:33:49.885Z,8
2016-12-25T06:35:00.197Z,8
2016-12-25T06:36:10.237Z,12
2016-12-25T06:37:20.554Z,12
2016-12-25T06:38:30.882Z,12
2016-12-25T06:39:41.227Z,16
2016-12-25T06:40:51.239Z,16
2016-12-25T06:42:01.259Z,20
2016-12-25T06:43:11.586Z,20
2016-12-25T06:44:21.609Z,20
2016-12-25T06:45:31.625Z,20
2016-12-25T06:46:41.321Z,24
2016-12-25T06:47:51.344Z,24
2016-12-25T06:49:01.047Z,28
2016-12-25T06:50:10.445Z,32
2016-12-25T06:51:20.769Z,32
2016-12-25T06:52:31.101Z,36
2016-12-25T06:53:41.414Z,44
2016-12-25T06:54:51.732Z,48
2016-12-25T06:56:02.047Z,52
2016-12-25T06:57:11.439Z,52
2016-12-25T06:58:21.180Z,56
2016-12-25T06:59:31.497Z,60
2016-12-25T07:00:41.835Z,56
2016-12-25T07:01:51.534Z,60
2016-12-25T07:03:01.861Z,64
2016-12-25T07:04:11.613Z,72
2016-12-25T07:05:21.624Z,84
2016-12-25T07:06:31.941Z,88
2016-12-25T07:07:41.938Z,96
2016-12-25T07:08:52.245Z,104
2016-12-25T07:10:02.267Z,120
2016-12-25T07:11:11.982Z,136
2016-12-25T07:12:21.374Z,152
2016-12-25T07:13:31.700Z,160
2016-12-25T07:14:42.054Z,168
2016-12-25T07:15:52.375Z,176
2016-12-25T07:17:02.708Z,172
2016-12-25T07:18:13.050Z,172
2016-12-25T07:19:23.368Z,172
2016-12-25T07:20:33.686Z,176
2016-12-25T07:21:43.080Z,180
2016-12-25T07:22:53.404Z,188
2016-12-25T07:24:03.431Z,192
2016-12-25T07:25:13.448Z,188
2016-12-25T07:26:23.780Z,172
2016-12-25T07:27:34.145Z,180
2016-12-25T07:28:44.484Z,196
2016-12-25T07:29:54.805Z,204
2016-12-25T07:31:05.130Z,208
2016-12-25T07:32:14.522Z,212
2016-12-25T07:33:24.545Z,220
2016-12-25T07:34:34.875Z,228
2016-12-25T07:35:44.889Z,232
2016-12-25T07:36:55.214Z,236
2016-12-25T07:38:04.912Z,240
2016-12-25T07:39:14.940Z,248
2016-12-25T07:40:24.959Z,252
2016-12-25T07:41:34.963Z,264
2016-12-25T07:42:44.981Z,272
2016-12-25T07:43:55.002Z,288
2016-12-25T07:45:05.034Z,308
2016-12-25T07:46:15.049Z,324
2016-12-25T07:47:25.070Z,332
2016-12-25T07:48:34.469Z,328
2016-12-25T07:49:44.783Z,316
2016-12-25T07:50:55.120Z,308
2016-12-25T07:52:05.507Z,308
2016-12-25T07:53:15.524Z,312
2016-12-25T07:54:25.235Z,316
2016-12-25T07:55:34.943Z,316
2016-12-25T07:56:44.959Z,316
2016-12-25T07:57:55.302Z,324
2016-12-25T07:59:05.336Z,332
2016-12-25T08:00:15.351Z,332
2016-12-25T08:01:25.372Z,320
2016-12-25T08:02:35.077Z,308
2016-12-25T08:03:45.409Z,316
2016-12-25T08:04:55.416Z,324
2016-12-25T08:06:05.747Z,328
2016-12-25T08:07:16.094Z,328
2016-12-25T08:08:26.430Z,332
2016-12-25T08:09:35.823Z,340
2016-12-25T08:10:46.156Z,344
2016-12-25T08:11:55.857Z,352
2016-12-25T08:13:05.873Z,372
2016-12-25T08:14:15.570Z,392
2016-12-25T08:15:25.899Z,392
2016-12-25T08:16:36.235Z,396
2016-12-25T08:17:46.567Z,392
2016-12-25T08:18:56.907Z,396
2016-12-25T08:20:07.267Z,404
2016-12-25T08:21:17.607Z,412
2016-12-25T08:22:27.606Z,424
2016-12-25T08:23:37.625Z,424
2016-12-25T08:24:47.632Z,424
2016-12-25T08:25:57.960Z,420
2016-12-25T08:27:07.972Z,416
2016-12-25T08:28:17.989Z,404
2016-12-25T08:29:28.309Z,400
2016-12-25T08:30:38.644Z,392
2016-12-25T08:31:48.963Z,392
2016-12-25T08:32:59.298Z,392
2016-12-25T08:34:09.627Z,404
2016-12-25T08:35:19.657Z,424
2016-12-25T08:36:29.998Z,436
2016-12-25T08:37:40.042Z,448
2016-12-25T08:38:49.752Z,460
2016-12-25T08:39:59.769Z,480
2016-12-25T08:41:09.496Z,496
2016-12-25T08:42:19.511Z,504
2016-12-25T08:43:29.227Z,492
2016-12-25T08:44:39.239Z,484
2016-12-25T08:45:49.562Z,484
2016-12-25T08:46:58.953Z,496
2016-12-25T08:48:08.966Z,508
2016-12-25T08:49:19.289Z,520
2016-12-25T08:50:29.295Z,544
2016-12-25T08:51:39.627Z,568
2016-12-25T08:52:49.648Z,580
2016-12-25T08:53:59.651Z,592
2016-12-25T08:55:09.731Z,600
2016-12-25T08:56:19.762Z,616
2016-12-25T08:57:29.477Z,628
2016-12-25T08:58:39.801Z,636
2016-12-25T08:59:49.512Z,640
2016-12-25T09:00:59.846Z,644
2016-12-25T09:02:09.867Z,668
2016-12-25T09:03:20.188Z,704
2016-12-25T09:04:30.530Z,732
2016-12-25T09:05:40.547Z,736
2016-12-25T09:06:50.562Z,736
2016-12-25T09:08:00.895Z,728
2016-12-25T09:09:10.920Z,716
2016-12-25T09:10:21.252Z,732
2016-12-25T09:11:31.570Z,768
2016-12-25T09:12:41.618Z,808
2016-12-25T09:13:51.622Z,836
2016-12-25T09:15:01.956Z,828
2016-12-25T09:16:12.296Z,800
2016-12-25T09:17:21.678Z,776
2016-12-25T09:18:32.238Z,780
2016-12-25T09:19:42.587Z,792
2016-12-25T09:20:52.932Z,824
2016-12-25T09:22:02.961Z,840
2016-12-25T09:23:12.711Z,848
2016-12-25T09:24:22.727Z,856
2016-12-25T09:25:33.060Z,872
2016-12-25T09:26:43.082Z,900
2016-12-25T09:27:53.403Z,928
2016-12-25T09:29:03.726Z,964
2016-12-25T09:30:13.432Z,1000
2016-12-25T09:31:23.460Z,1036
2016-12-25T09:32:33.472Z,1048
2016-12-25T09:33:43.825Z,1040
2016-12-25T09:34:54.138Z,1028
2016-12-25T09:36:04.150Z,1016
2016-12-25T09:37:13.852Z,1012
2016-12-25T09:38:24.174Z,1012
2016-12-25T09:39:34.501Z,1024
2016-12-25T09:40:44.517Z,1036
2016-12-25T09:41:54.526Z,1044
2016-12-25T09:43:04.850Z,1048
2016-12-25T09:44:14.893Z,1032
2016-12-25T09:45:25.221Z,1012
2016-12-25T09:46:35.537Z,988
2016-12-25T09:47:45.554Z,980
2016-12-25T09:48:55.899Z,992
2016-12-25T09:50:05.909Z,1004
2016-12-25T09:51:15.633Z,1008
2016-12-25T09:52:25.646Z,1008
2016-12-25T09:53:35.662Z,1008
2016-12-25T09:54:45.689Z,1016
2016-12-25T09:55:56.018Z,1044
2016-12-25T09:57:06.356Z,1068
2016-12-25T09:58:16.688Z,1092
2016-12-25T09:59:26.702Z,1100
2016-12-25T10:00:37.016Z,1096
2016-12-25T10:01:47.040Z,1084
2016-12-25T10:02:56.742Z,1092
2016-12-25T10:04:07.091Z,1104
2016-12-25T10:05:16.809Z,1104
2016-12-25T10:06:26.511Z,1104
2016-12-25T10:07:36.534Z,1108
2016-12-25T10:08:46.555Z,1136
2016-12-25T10:09:56.876Z,1160
2016-12-25T10:11:06.950Z,1180
2016-12-25T10:12:17.283Z,1188
2016-12-25T10:13:27.311Z,1192
2016-12-25T10:14:37.326Z,1188
2016-12-25T10:15:47.343Z,1180
2016-12-25T10:16:57.356Z,1196
2016-12-25T10:18:07.691Z,1212
2016-12-25T10:19:17.747Z,1224
2016-12-25T10:20:27.765Z,1248
2016-12-25T10:21:38.103Z,1272
2016-12-25T10:22:48.459Z,1304
2016-12-25T10:23:58.791Z,1352
2016-12-25T10:25:08.808Z,1412
2016-12-25T10:26:18.505Z,1468
2016-12-25T10:27:28.212Z,1512
2016-12-25T10:28:38.223Z,1580
2016-12-25T10:29:48.573Z,1688
2016-12-25T10:30:58.627Z,1768
2016-12-25T10:32:08.664Z,1804
2016-12-25T10:33:18.994Z,1796
2016-12-25T10:34:29.331Z,1768
2016-12-25T10:35:39.383Z,1752
2016-12-25T10:36:49.717Z,1724
2016-12-25T10:37:59.742Z,1676
2016-12-25T10:39:09.763Z,1616
2016-12-25T10:40:19.781Z,1548
2016-12-25T10:41:30.133Z,1488
2016-12-25T10:42:40.464Z,1432
2016-12-25T10:43:50.170Z,1400
2016-12-25T10:45:00.507Z,1420
2016-12-25T10:46:10.849Z,1464
2016-12-25T10:47:21.175Z,1464
2016-12-25T10:48:31.188Z,1464
2016-12-25T10:49:41.209Z,1440
2016-12-25T10:50:51.251Z,1436
2016-12-25T10:52:01.278Z,1448
2016-12-25T10:53:11.604Z,1460
2016-12-25T10:54:21.935Z,1496
2016-12-25T10:55:32.313Z,1540
2016-12-25T10:56:42.633Z,1580
2016-12-25T10:57:52.643Z,1608
2016-12-25T10:59:02.664Z,1628
2016-12-25T11:00:12.669Z,1636
2016-12-25T11:01:22.708Z,1624
2016-12-25T11:02:33.038Z,1612
2016-12-25T11:03:43.065Z,1592
2016-12-25T11:04:53.078Z,1596
2016-12-25T11:06:03.117Z,1644
2016-12-25T11:07:13.141Z,1680
2016-12-25T11:08:22.846Z,1684
2016-12-25T11:09:33.189Z,1696
2016-12-25T11:10:43.197Z,1736
2016-12-25T11:11:53.249Z,1784
2016-12-25T11:13:03.568Z,1836
2016-12-25T11:14:13.598Z,1916
2016-12-25T11:15:23.317Z,1996
2016-12-25T11:16:32.716Z,2060
2016-12-25T11:17:43.068Z,2052
2016-12-25T11:18:53.409Z,1976
2016-12-25T11:20:03.730Z,1880
2016-12-25T11:21:13.740Z,1880
2016-12-25T11:22:23.781Z,1896
2016-12-25T11:23:33.805Z,1852
2016-12-25T11:24:44.135Z,1756
2016-12-25T11:25:54.183Z,1640
2016-12-25T11:27:04.512Z,1528
2016-12-25T11:28:14.557Z,1492
2016-12-25T11:29:24.893Z,1508
2016-12-25T11:30:34.946Z,1556
2016-12-25T11:31:44.658Z,1612
2016-12-25T11:32:54.991Z,1656
2016-12-25T11:34:04.720Z,1732
2016-12-25T11:35:14.747Z,1816
2016-12-25T11:36:24.470Z,1848
2016-12-25T11:37:34.530Z,1812
2016-12-25T11:38:44.859Z,1740
2016-12-25T11:39:55.216Z,1712
2016-12-25T11:41:05.239Z,1768
2016-12-25T11:42:15.268Z,1868
2016-12-25T11:43:25.595Z,1900
2016-12-25T11:44:35.612Z,1868
2016-12-25T11:45:45.023Z,1804
2016-12-25T11:46:55.350Z,1756
2016-12-25T11:48:05.678Z,1752
2016-12-25T11:49:15.698Z,1752
2016-12-25T11:50:25.745Z,1756
2016-12-25T11:51:36.087Z,1764
2016-12-25T11:52:46.108Z,1780
2016-12-25T11:53:56.467Z,1780
2016-12-25T11:55:06.793Z,1716
2016-12-25T11:56:16.850Z,1680
2016-12-25T11:57:27.184Z,1736
2016-12-25T11:58:37.523Z,1860
2016-12-25T11:59:47.882Z,1976
2016-12-25T12:00:58.227Z,2068
2016-12-25T12:02:08.567Z,2144
2016-12-25T12:03:18.593Z,2188
2016-12-25T12:04:28.932Z,2216
2016-12-25T12:05:39.253Z,2280
2016-12-25T12:06:49.590Z,2304
2016-12-25T12:07:59.601Z,2276
2016-12-25T12:09:09.646Z,2228
2016-12-25T12:10:19.991Z,2208
2016-12-25T12:11:30.006Z,2220
2016-12-25T12:12:40.044Z,2244
2016-12-25T12:13:50.433Z,2232
2016-12-25T12:15:02.038Z,2192
2016-12-25T12:16:14.518Z,2212
2016-12-25T12:17:27.122Z,2268
2016-12-25T12:18:40.463Z,2304
2016-12-25T12:19:52.548Z,2312
2016-12-25T12:21:05.724Z,2316
2016-12-25T12:22:19.806Z,2312
2016-12-25T12:23:31.504Z,2364
2016-12-25T12:24:45.731Z,2456
2016-12-25T12:25:58.001Z,2456
2016-12-25T12:27:10.887Z,2360
2016-12-25T12:28:24.048Z,2236
2016-12-25T12:29:37.065Z,2168
2016-12-25T12:30:48.313Z,2168
2016-12-25T12:32:01.383Z,2148
2016-12-25T12:33:14.240Z,2108
2016-12-25T12:34:27.273Z,2020
2016-12-25T12:35:40.302Z,1876
2016-12-25T12:36:52.693Z,1752
2016-12-25T12:38:05.243Z,1688
2016-12-25T12:39:17.182Z,1692
2016-12-25T12:40:30.579Z,1772
2016-12-25T12:41:42.421Z,1832
2016-12-25T12:42:54.126Z,1836
2016-12-25T12:44:05.473Z,1800
2016-12-25T12:45:16.604Z,1756
2016-12-25T12:46:26.491Z,1720
2016-12-25T12:47:36.732Z,1720
2016-12-25T12:48:46.435Z,1736
2016-12-25T12:49:56.466Z,1712
2016-12-25T12:51:06.195Z,1628
2016-12-25T12:52:16.619Z,1504
2016-12-25T12:53:26.746Z,1372
2016-12-25T12:54:37.223Z,1296
2016-12-25T12:55:47.555Z,1288
2016-12-25T12:56:57.722Z,1312
2016-12-25T12:58:08.106Z,1332
2016-12-25T12:59:18.492Z,1332
2016-12-25T13:00:28.585Z,1276
2016-12-25T13:01:38.975Z,1196
2016-12-25T13:02:49.412Z,1124
2016-12-25T13:03:59.441Z,1076
2016-12-25T13:05:09.796Z,1056
2016-12-25T13:06:20.227Z,1088
2016-12-25T13:07:30.556Z,1136
2016-12-25T13:08:40.899Z,1172
2016-12-25T13:09:51.228Z,1180
2016-12-25T13:11:01.554Z,1212
2016-12-25T13:12:11.626Z,1256
2016-12-25T13:13:21.691Z,1276
2016-12-25T13:14:31.765Z,1268
2016-12-25T13:15:42.230Z,1276
2016-12-25T13:16:52.303Z,1324
2016-12-25T13:18:02.413Z,1372
2016-12-25T13:19:12.765Z,1376
2016-12-25T13:20:23.113Z,1332
2016-12-25T13:21:33.458Z,1264
2016-12-25T13:22:43.487Z,1196
2016-12-25T13:23:53.838Z,1136
2016-12-25T13:25:03.277Z,1128
2016-12-25T13:26:13.326Z,1132
2016-12-25T13:27:23.038Z,1100
2016-12-25T13:28:33.088Z,1072
2016-12-25T13:29:43.449Z,1068
2016-12-25T13:30:53.532Z,1096
2016-12-25T13:32:03.905Z,1080
2016-12-25T13:33:14.309Z,1012
2016-12-25T13:34:24.342Z,932
2016-12-25T13:35:34.373Z,904
2016-12-25T13:36:44.732Z,916
2016-12-25T13:37:55.102Z,940
2016-12-25T13:39:05.129Z,940
2016-12-25T13:40:15.481Z,940
2016-12-25T13:41:25.517Z,948
2016-12-25T13:42:35.861Z,968
2016-12-25T13:43:45.896Z,984
2016-12-25T13:44:55.930Z,976
2016-12-25T13:46:05.962Z,956
2016-12-25T13:47:16.010Z,940
2016-12-25T13:48:26.034Z,924
2016-12-25T13:49:36.438Z,896
2016-12-25T13:50:46.770Z,896
2016-12-25T13:51:57.110Z,900
2016-12-25T13:53:07.149Z,892
2016-12-25T13:54:16.873Z,872
2016-12-25T13:55:26.912Z,856
2016-12-25T13:56:37.265Z,844
2016-12-25T13:57:47.591Z,848
2016-12-25T13:58:57.961Z,840
2016-12-25T14:00:07.682Z,816
2016-12-25T14:01:18.035Z,804
2016-12-25T14:02:28.372Z,800
2016-12-25T14:03:38.745Z,796
2016-12-25T14:04:48.764Z,784
2016-12-25T14:05:59.161Z,764
2016-12-25T14:07:09.508Z,748
2016-12-25T14:08:19.837Z,716
2016-12-25T14:09:30.174Z,680
2016-12-25T14:10:40.215Z,644
2016-12-25T14:11:50.547Z,616
2016-12-25T14:13:00.563Z,592
2016-12-25T14:14:10.619Z,564
2016-12-25T14:15:20.961Z,536
2016-12-25T14:16:31.009Z,492
2016-12-25T14:17:41.376Z,448
2016-12-25T14:18:51.089Z,412
2016-12-25T14:20:00.819Z,388
2016-12-25T14:21:11.173Z,372
2016-12-25T14:22:20.577Z,360
2016-12-25T14:23:30.981Z,348
2016-12-25T14:24:41.028Z,336
2016-12-25T14:25:51.108Z,328
2016-12-25T14:27:01.140Z,320
2016-12-25T14:28:10.887Z,312
2016-12-25T14:29:21.253Z,296
2016-12-25T14:30:31.661Z,272
2016-12-25T14:31:41.389Z,252
2016-12-25T14:32:51.406Z,232
2016-12-25T14:34:01.448Z,204
2016-12-25T14:35:11.495Z,184
2016-12-25T14:36:21.859Z,168
2016-12-25T14:37:32.220Z,156
2016-12-25T14:38:42.248Z,144
2016-12-25T14:39:52.605Z,132
2016-12-25T14:41:02.624Z,124
2016-12-25T14:42:12.991Z,112
2016-12-25T14:43:23.358Z,104
2016-12-25T14:44:33.075Z,96
2016-12-25T14:45:43.131Z,88
2016-12-25T14:46:53.177Z,88
2016-12-25T14:48:03.533Z,80
2016-12-25T14:49:14.756Z,72
2016-12-25T14:50:24.476Z,64
2016-12-25T14:51:34.523Z,56
2016-12-25T14:52:44.550Z,52
2016-12-25T14:53:54.268Z,52
2016-12-25T14:55:04.650Z,48
2016-12-25T14:56:15.037Z,44
2016-12-25T14:57:25.114Z,40
2016-12-25T14:58:35.478Z,32
2016-12-25T14:59:45.207Z,36
2016-12-25T15:00:55.265Z,28
2016-12-25T15:02:05.299Z,32
2016-12-25T15:03:15.653Z,28
2016-12-25T15:04:25.699Z,24
2016-12-25T15:05:35.758Z,24
2016-12-25T15:06:46.150Z,24
2016-12-25T15:07:56.486Z,20
2016-12-25T15:09:07.131Z,16
2016-12-25T15:10:17.474Z,12
2016-12-25T15:11:27.518Z,12
2016-12-25T15:12:37.542Z,12
2016-12-25T15:13:47.561Z,8
2016-12-25T15:14:57.895Z,12
2016-12-25T15:16:07.935Z,8
2016-12-25T15:17:17.994Z,8
2016-12-25T15:18:28.063Z,4
2016-12-25T15:19:38.102Z,4
2016-12-25T15:20:48.148Z,4
2016-12-25T15:21:58.200Z,4
2016-12-25T15:23:08.241Z,4
2016-12-25T15:24:18.268Z,0
2016-12-25T15:25:28.306Z,4
2016-12-25T15:26:38.663Z,4
2016-12-25T15:27:49.010Z,4
2016-12-25T15:28:58.718Z,0
2016-12-25T15:30:08.764Z,0
2016-12-25T15:31:19.135Z,0
2016-12-25T15:32:29.157Z,0
2016-12-25T15:33:38.872Z,0
2016-12-25T15:34:49.227Z,0
2016-12-25T15:35:59.268Z,0
2016-12-25T15:37:09.633Z,0
2016-12-25T15:38:19.966Z,0
2016-12-25T15:39:30.331Z,0
2016-12-25T15:40:40.679Z,0
2016-12-25T15:41:51.024Z,0
2016-12-25T15:43:01.050Z,0
2016-12-25T15:44:11.405Z,0
2016-12-25T15:45:21.735Z,0
2016-12-25T15:46:31.757Z,0
2016-12-25T15:47:41.839Z,0
2016-12-25T15:48:51.587Z,0
2016-12-25T15:50:01.919Z,0
2016-12-25T15:51:11.674Z,0
2016-12-25T15:52:22.015Z,0
2016-12-25T15:53:32.390Z,0
2016-12-25T15:54:42.744Z,0
2016-12-25T15:55:52.787Z,0
2016-12-25T15:57:02.499Z,0
2016-12-25T15:58:12.868Z,0
2016-12-25T15:59:22.280Z,0
2016-12-25T16:00:32.628Z,0
2016-12-25T16:01:42.664Z,0
2016-12-25T16:02:52.109Z,0
2016-12-25T16:04:02.501Z,0
2016-12-25T16:05:12.883Z,0
2016-12-25T16:06:23.216Z,0
2016-12-25T16:07:33.567Z,0
2016-12-25T16:08:43.608Z,0
2016-12-25T16:09:53.953Z,0
2016-12-25T16:11:04.338Z,0
2016-12-25T16:12:14.064Z,0
2016-12-25T16:13:24.091Z,0
2016-12-25T16:14:34.129Z,0
2016-12-25T16:15:44.722Z,0
2016-12-25T16:16:55.118Z,0
2016-12-25T16:18:04.840Z,0
2016-12-25T16:19:14.870Z,0
2016-12-25T16:20:25.212Z,0
2016-12-25T16:21:35.239Z,0
2016-12-25T16:22:45.584Z,0
2016-12-25T16:23:55.914Z,0
2016-12-25T16:25:05.613Z,0
2016-12-25T16:26:15.952Z,0
2016-12-25T16:27:25.704Z,0
2016-12-25T16:28:37.519Z,0
2016-12-25T16:29:47.873Z,0
2016-12-25T16:30:57.935Z,0
2016-12-25T16:32:08.269Z,0
2016-12-25T16:33:18.300Z,0
2016-12-25T16:34:28.688Z,0
2016-12-25T16:35:39.038Z,0
2016-12-25T16:36:49.102Z,0
2016-12-25T16:37:59.139Z,0
2016-12-25T16:39:09.199Z,0
2016-12-25T16:40:19.228Z,0
2016-12-25T16:41:29.589Z,0
2016-12-25T16:42:39.619Z,0
2016-12-25T16:43:49.651Z,0
2016-12-25T16:44:59.999Z,0
2016-12-25T16:46:10.350Z,0
2016-12-25T16:47:20.392Z,0
2016-12-25T16:48:30.418Z,0
2016-12-25T16:49:40.773Z,0
2016-12-25T16:50:51.121Z,0
2016-12-25T16:52:01.458Z,0
2016-12-25T16:53:11.166Z,0
2016-12-25T16:54:21.497Z,0
2016-12-25T16:55:31.834Z,0
2016-12-25T16:56:41.864Z,0
2016-12-25T16:57:52.198Z,0
2016-12-25T16:59:02.228Z,0
2016-12-25T17:00:12.580Z,0
2016-12-25T17:01:22.909Z,0
2016-12-25T17:02:32.969Z,0
2016-12-25T17:03:43.011Z,0